createdAt,value
2023-03-17T00:00:36.700Z,0.74
2023-03-17T00:04:36.762Z,0.74
2023-03-17T00:08:36.869Z,0.73
2023-03-17T00:12:36.949Z,0.73
2023-03-17T00:16:37.005Z,0.70
2023-03-17T00:20:37.080Z,0.71
2023-03-17T00:24:37.177Z,0.70
2023-03-17T00:28:37.252Z,0.70
2023-03-17T00:32:37.392Z,0.69
2023-03-17T00:36:37.433Z,0.70
2023-03-17T00:40:37.501Z,0.69
2023-03-17T00:44:37.558Z,0.69
2023-03-17T00:48:37.645Z,0.70
2023-03-17T00:52:37.752Z,0.69
2023-03-17T00:56:37.923Z,0.68
2023-03-17T01:00:37.991Z,0.68
2023-03-17T01:04:38.076Z,0.67
2023-03-17T01:08:38.223Z,0.68
2023-03-17T01:12:38.267Z,0.67
2023-03-17T01:16:38.413Z,0.65
2023-03-17T01:20:38.493Z,0.68
2023-03-17T01:24:38.589Z,0.65
2023-03-17T01:28:38.668Z,0.67
2023-03-17T01:32:38.864Z,0.66
2023-03-17T01:36:38.920Z,0.67
2023-03-17T01:40:39.022Z,0.65
2023-03-17T01:44:39.172Z,0.67
2023-03-17T01:48:39.326Z,0.64
2023-03-17T01:52:39.449Z,0.66
2023-03-17T01:56:39.569Z,0.64
2023-03-17T02:00:39.787Z,0.65
2023-03-17T02:04:39.875Z,0.64
2023-03-17T02:08:39.923Z,0.64
2023-03-17T02:12:40.063Z,0.64
2023-03-17T02:16:40.301Z,0.62
2023-03-17T02:20:40.367Z,0.63
2023-03-17T02:24:40.533Z,0.63
2023-03-17T02:28:40.673Z,0.64
2023-03-17T02:32:40.852Z,0.62
2023-03-17T02:36:41.061Z,0.65
2023-03-17T02:40:41.119Z,0.62
2023-03-17T02:44:41.229Z,0.61
2023-03-17T02:48:41.400Z,0.62
2023-03-17T02:52:41.521Z,0.63
2023-03-17T02:56:41.717Z,0.61
2023-03-17T03:00:41.837Z,0.61
2023-03-17T03:04:42.181Z,0.60
2023-03-17T03:08:42.222Z,0.59
2023-03-17T03:12:42.329Z,0.61
2023-03-17T03:16:42.511Z,0.58
2023-03-17T03:20:42.675Z,0.60
2023-03-17T03:24:42.879Z,0.58
2023-03-17T03:28:42.994Z,0.59
2023-03-17T03:32:43.208Z,0.58
2023-03-17T03:36:43.344Z,0.58
2023-03-17T03:40:43.574Z,0.57
2023-03-17T03:44:43.753Z,0.56
2023-03-17T03:48:43.984Z,0.56
2023-03-17T03:52:44.153Z,0.57
2023-03-17T03:56:44.347Z,0.57
2023-03-17T04:00:44.574Z,0.56
2023-03-17T04:04:44.838Z,0.56
2023-03-17T04:08:44.945Z,0.56
2023-03-17T04:12:45.115Z,0.55
2023-03-17T04:16:45.332Z,0.56
2023-03-17T04:20:45.481Z,0.56
2023-03-17T04:24:45.702Z,0.54
2023-03-17T04:28:45.942Z,0.56
2023-03-17T04:32:46.225Z,0.56
2023-03-17T04:36:46.362Z,0.54
2023-03-17T04:40:46.576Z,0.55
2023-03-17T04:44:46.772Z,0.56
2023-03-17T04:48:47.000Z,0.55
2023-03-17T04:52:46.970Z,0.55
2023-03-17T04:56:46.916Z,0.55
2023-03-17T05:00:46.925Z,0.54
2023-03-17T05:04:46.858Z,0.55
2023-03-17T05:08:46.826Z,0.53
2023-03-17T05:12:46.737Z,0.54
2023-03-17T05:16:46.802Z,0.53
2023-03-17T05:20:46.709Z,0.53
2023-03-17T05:24:46.673Z,0.53
2023-03-17T05:28:46.701Z,0.53
2023-03-17T05:32:46.614Z,0.53
2023-03-17T05:36:46.588Z,0.53
2023-03-17T05:40:46.520Z,0.53
2023-03-17T05:44:46.500Z,0.53
2023-03-17T05:48:46.429Z,0.53
2023-03-17T05:52:46.424Z,0.54
2023-03-17T05:56:46.378Z,0.58
2023-03-17T06:00:46.337Z,0.65
2023-03-17T06:04:46.317Z,0.74
2023-03-17T06:08:46.278Z,0.76
2023-03-17T06:12:46.502Z,0.82
2023-03-17T06:16:46.705Z,0.88
2023-03-17T06:20:46.927Z,1.00
2023-03-17T06:24:47.109Z,1.04
2023-03-17T06:28:47.315Z,1.09
2023-03-17T06:32:47.542Z,1.16
2023-03-17T06:36:47.667Z,1.27
2023-03-17T06:40:48.236Z,1.29
2023-03-17T06:44:48.258Z,1.31
2023-03-17T06:48:48.289Z,1.27
2023-03-17T06:52:48.778Z,1.33
2023-03-17T06:56:48.513Z,1.34
2023-03-17T07:00:48.776Z,1.35
2023-03-17T07:04:48.826Z,1.40
2023-03-17T07:08:49.259Z,1.39
2023-03-17T07:12:48.995Z,1.47
2023-03-17T07:16:49.202Z,1.52
2023-03-17T07:20:49.165Z,1.53
2023-03-17T07:24:49.414Z,1.59
2023-03-17T07:28:49.766Z,1.77
2023-03-17T07:32:49.386Z,1.80
2023-03-17T07:36:49.790Z,1.79
2023-03-17T07:40:49.367Z,1.87
2023-03-17T07:44:49.805Z,1.93
2023-03-17T07:48:50.266Z,1.97
2023-03-17T07:52:49.368Z,1.94
2023-03-17T07:56:49.781Z,2.01
2023-03-17T08:00:49.405Z,2.05
2023-03-17T08:04:49.426Z,2.04
2023-03-17T08:08:49.457Z,2.04
2023-03-17T08:12:49.467Z,2.07
2023-03-17T08:16:49.547Z,1.99
2023-03-17T08:20:49.770Z,2.03
2023-03-17T08:24:49.483Z,2.08
2023-03-17T08:28:49.458Z,2.01
2023-03-17T08:32:49.784Z,1.97
2023-03-17T08:36:49.527Z,2.00
2023-03-17T08:40:49.799Z,1.98
2023-03-17T08:44:49.854Z,1.91
2023-03-17T08:48:50.303Z,1.94
2023-03-17T08:52:50.301Z,1.89
2023-03-17T08:56:50.771Z,1.73
2023-03-17T09:00:50.532Z,1.72
2023-03-17T09:04:50.673Z,1.62
2023-03-17T09:08:51.323Z,1.56
2023-03-17T09:12:50.841Z,1.48
2023-03-17T09:16:50.769Z,1.59
2023-03-17T09:20:50.734Z,1.53
2023-03-17T09:24:50.736Z,1.51
2023-03-17T09:28:50.814Z,1.44
2023-03-17T09:32:50.763Z,1.53
2023-03-17T09:36:50.589Z,1.48
2023-03-17T09:40:50.853Z,1.37
2023-03-17T09:44:50.820Z,1.40
2023-03-17T09:48:50.807Z,1.37
2023-03-17T09:52:51.553Z,1.30
2023-03-17T09:56:50.574Z,1.37
2023-03-17T10:00:50.556Z,1.48
2023-03-17T10:04:50.915Z,1.40
2023-03-17T10:08:50.466Z,1.42
2023-03-17T10:12:50.422Z,1.24
2023-03-17T10:16:50.562Z,1.30
2023-03-17T10:20:51.701Z,1.33
2023-03-17T10:24:50.860Z,1.35
2023-03-17T10:28:50.686Z,1.39
2023-03-17T10:32:50.668Z,1.46
2023-03-17T10:36:50.815Z,1.50
2023-03-17T10:40:50.843Z,1.62
2023-03-17T10:44:50.883Z,1.53
2023-03-17T10:48:50.502Z,1.56
2023-03-17T10:52:50.834Z,1.44
2023-03-17T10:56:50.847Z,1.32
2023-03-17T11:00:50.401Z,1.34
2023-03-17T11:04:50.405Z,1.27
2023-03-17T11:08:50.340Z,1.14
2023-03-17T11:12:50.359Z,1.19
2023-03-17T11:16:50.429Z,1.14
2023-03-17T11:20:50.226Z,1.07
2023-03-17T11:24:50.210Z,1.14
2023-03-17T11:28:50.154Z,1.05
2023-03-17T11:32:50.409Z,0.91
2023-03-17T11:36:50.366Z,0.92
2023-03-17T11:40:50.170Z,0.95
2023-03-17T11:44:50.353Z,0.93
2023-03-17T11:48:50.366Z,0.96
2023-03-17T11:52:50.372Z,0.94
2023-03-17T11:56:50.061Z,0.88
2023-03-17T12:00:50.022Z,0.90
2023-03-17T12:04:50.387Z,0.79
2023-03-17T12:08:49.913Z,0.79
2023-03-17T12:12:49.881Z,0.76
2023-03-17T12:16:50.352Z,0.64
2023-03-17T12:20:49.866Z,0.73
2023-03-17T12:24:49.864Z,0.69
2023-03-17T12:28:49.785Z,0.67
2023-03-17T12:32:49.925Z,0.85
2023-03-17T12:36:49.920Z,0.76
2023-03-17T12:40:49.662Z,0.77
2023-03-17T12:44:49.890Z,0.77
2023-03-17T12:48:49.610Z,0.78
2023-03-17T12:52:49.564Z,0.84
2023-03-17T12:56:49.536Z,0.81
2023-03-17T13:00:49.621Z,0.70
2023-03-17T13:04:49.887Z,0.70
2023-03-17T13:08:49.580Z,0.73
2023-03-17T13:12:49.528Z,0.78
2023-03-17T13:16:49.483Z,0.76
2023-03-17T13:20:49.447Z,0.73
2023-03-17T13:24:49.426Z,0.82
2023-03-17T13:28:49.401Z,0.71
2023-03-17T13:32:49.364Z,0.84
2023-03-17T13:36:49.271Z,0.77
2023-03-17T13:40:49.471Z,0.78
2023-03-17T13:44:49.647Z,0.72
2023-03-17T13:48:49.858Z,0.74
2023-03-17T13:52:50.074Z,0.66
2023-03-17T13:56:50.259Z,0.66
2023-03-17T14:00:50.261Z,0.55
2023-03-17T14:04:50.196Z,0.54
2023-03-17T14:08:50.154Z,0.58
2023-03-17T14:12:51.223Z,0.56
2023-03-17T14:16:50.068Z,0.57
2023-03-17T14:20:50.049Z,0.55
2023-03-17T14:24:50.008Z,0.57
2023-03-17T14:28:49.964Z,0.60
2023-03-17T14:32:50.180Z,0.55
2023-03-17T14:36:50.070Z,0.51
2023-03-17T14:40:50.001Z,0.55
2023-03-17T14:44:49.972Z,0.60
2023-03-17T14:48:49.960Z,0.61
2023-03-17T14:52:49.914Z,0.52
2023-03-17T14:56:49.875Z,0.54
2023-03-17T15:00:49.918Z,0.60
2023-03-17T15:04:49.771Z,0.55
2023-03-17T15:08:49.767Z,0.56
2023-03-17T15:12:49.914Z,0.56
2023-03-17T15:16:49.875Z,0.53
2023-03-17T15:20:49.801Z,0.56
2023-03-17T15:24:49.793Z,0.54
2023-03-17T15:28:49.760Z,0.51
2023-03-17T15:32:49.702Z,0.54
2023-03-17T15:36:49.659Z,0.62
2023-03-17T15:40:49.614Z,0.58
2023-03-17T15:44:49.588Z,0.80
2023-03-17T15:48:49.536Z,0.72
2023-03-17T15:52:49.524Z,0.66
2023-03-17T15:56:49.640Z,0.63
2023-03-17T16:00:49.924Z,0.57
2023-03-17T16:04:49.842Z,0.58
2023-03-17T16:08:49.755Z,0.65
2023-03-17T16:12:49.764Z,0.64
2023-03-17T16:16:49.671Z,0.59
2023-03-17T16:20:49.659Z,0.62
2023-03-17T16:24:49.634Z,0.66
2023-03-17T16:28:49.570Z,0.67
2023-03-17T16:32:49.658Z,0.55
2023-03-17T16:36:49.506Z,0.65
2023-03-17T16:40:49.694Z,0.71
2023-03-17T16:44:49.711Z,0.76
2023-03-17T16:48:49.635Z,0.82
2023-03-17T16:52:49.598Z,0.76
2023-03-17T16:56:49.584Z,0.87
2023-03-17T17:00:49.509Z,0.97
2023-03-17T17:04:49.458Z,0.92
2023-03-17T17:08:49.430Z,0.79
2023-03-17T17:12:49.390Z,1.01
2023-03-17T17:16:49.337Z,0.71
2023-03-17T17:20:49.336Z,0.87
2023-03-17T17:24:49.311Z,1.00
2023-03-17T17:28:49.284Z,0.76
2023-03-17T17:32:49.236Z,0.93
2023-03-17T17:36:49.193Z,1.08
2023-03-17T17:40:49.167Z,1.05
2023-03-17T17:44:49.094Z,1.02
2023-03-17T17:48:49.078Z,1.18
2023-03-17T17:52:49.059Z,1.11
2023-03-17T17:56:49.009Z,1.36
2023-03-17T18:00:49.021Z,0.99
2023-03-17T18:04:49.306Z,1.38
2023-03-17T18:08:49.143Z,1.52
2023-03-17T18:12:49.084Z,1.52
2023-03-17T18:16:49.155Z,1.52
2023-03-17T18:20:49.033Z,1.55
2023-03-17T18:24:48.972Z,1.68
2023-03-17T18:28:48.939Z,1.77
2023-03-17T18:32:48.996Z,1.88
2023-03-17T18:36:48.891Z,1.90
2023-03-17T18:40:48.854Z,1.99
2023-03-17T18:44:48.815Z,2.07
2023-03-17T18:48:48.948Z,2.04
2023-03-17T18:52:48.925Z,2.05
2023-03-17T18:56:48.865Z,2.15
2023-03-17T19:00:48.892Z,2.12
2023-03-17T19:04:48.781Z,2.17
2023-03-17T19:08:48.775Z,2.10
2023-03-17T19:12:49.021Z,2.11
2023-03-17T19:16:48.706Z,2.10
2023-03-17T19:20:48.699Z,2.08
2023-03-17T19:24:48.625Z,2.01
2023-03-17T19:28:48.602Z,2.04
2023-03-17T19:32:48.848Z,2.04
2023-03-17T19:36:48.985Z,1.98
2023-03-17T19:40:48.962Z,1.94
2023-03-17T19:44:48.981Z,1.91
2023-03-17T19:48:48.920Z,1.89
2023-03-17T19:52:48.840Z,1.88
2023-03-17T19:56:48.839Z,1.85
2023-03-17T20:00:48.748Z,1.83
2023-03-17T20:04:48.790Z,1.85
2023-03-17T20:08:48.694Z,1.77
2023-03-17T20:12:48.681Z,1.77
2023-03-17T20:16:48.746Z,1.72
2023-03-17T20:20:48.718Z,1.70
2023-03-17T20:24:48.640Z,1.71
2023-03-17T20:28:48.597Z,1.68
2023-03-17T20:32:48.565Z,1.68
2023-03-17T20:36:48.513Z,1.62
2023-03-17T20:40:48.487Z,1.60
2023-03-17T20:44:48.427Z,1.59
2023-03-17T20:48:48.406Z,1.55
2023-03-17T20:52:48.351Z,1.57
2023-03-17T20:56:48.424Z,1.51
2023-03-17T21:00:48.405Z,1.52
2023-03-17T21:04:48.336Z,1.51
2023-03-17T21:08:48.273Z,1.51
2023-03-17T21:12:48.301Z,1.46
2023-03-17T21:16:48.233Z,1.45
2023-03-17T21:20:48.244Z,1.44
2023-03-17T21:24:48.189Z,1.43
2023-03-17T21:28:48.152Z,1.40
2023-03-17T21:32:48.072Z,1.41
2023-03-17T21:36:48.120Z,1.42
2023-03-17T21:40:48.058Z,1.36
2023-03-17T21:44:48.015Z,1.36
2023-03-17T21:48:47.986Z,1.33
2023-03-17T21:52:47.941Z,1.30
2023-03-17T21:56:47.893Z,1.30
2023-03-17T22:00:48.167Z,1.28
2023-03-17T22:04:47.837Z,1.29
2023-03-17T22:08:47.787Z,1.26
2023-03-17T22:12:47.750Z,1.25
2023-03-17T22:16:47.926Z,1.25
2023-03-17T22:20:47.777Z,1.25
2023-03-17T22:24:47.699Z,1.18
2023-03-17T22:28:47.697Z,1.18
2023-03-17T22:32:47.713Z,1.18
2023-03-17T22:36:47.624Z,1.18
2023-03-17T22:40:47.561Z,1.15
2023-03-17T22:44:47.541Z,1.16
2023-03-17T22:48:47.492Z,1.12
2023-03-17T22:52:47.440Z,1.14
2023-03-17T22:56:47.580Z,1.10
2023-03-17T23:00:47.530Z,1.09
2023-03-17T23:04:47.502Z,1.09
2023-03-17T23:08:47.454Z,1.08
2023-03-17T23:12:47.446Z,1.10
2023-03-17T23:16:47.455Z,1.10
2023-03-17T23:20:47.384Z,1.09
2023-03-17T23:24:47.338Z,1.10
2023-03-17T23:28:47.282Z,1.07
2023-03-17T23:32:47.317Z,1.06
2023-03-17T23:36:47.421Z,1.05
2023-03-17T23:40:47.354Z,1.07
2023-03-17T23:44:47.334Z,1.05
2023-03-17T23:48:47.301Z,1.05
2023-03-17T23:52:47.298Z,1.02
2023-03-17T23:56:47.204Z,1.02
